TimeCST,TemperatureF,Dew PointF,Humidity,Sea Level PressureIn,VisibilityMPH,Wind Direction,Wind SpeedMPH,Gust SpeedMPH,PrecipitationIn,Events,Conditions,WindDirDegrees,DateUTC
12:15 AM,44.6,42.8,93,30.23,6.0,NNE,15.0,23.0,N/A,,Overcast,20,2013-12-08 06:15:00
12:35 AM,44.6,42.8,93,30.21,6.0,NNE,16.1,21.9,N/A,,Overcast,20,2013-12-08 06:35:00
12:55 AM,44.6,42.8,93,30.21,5.0,NNE,13.8,20.7,N/A,,Overcast,20,2013-12-08 06:55:00
1:15 AM,44.6,42.8,93,30.19,5.0,North,16.1,25.3,N/A,,Overcast,10,2013-12-08 07:15:00
1:35 AM,44.6,42.8,93,30.19,3.0,NNE,15.0,21.9,N/A,,Overcast,20,2013-12-08 07:35:00
1:55 AM,44.6,42.8,93,30.19,3.0,North,13.8,-,N/A,,Overcast,10,2013-12-08 07:55:00
2:15 AM,44.6,42.8,93,30.17,3.0,NNE,18.4,24.2,N/A,,Overcast,20,2013-12-08 08:15:00
2:35 AM,44.6,42.8,93,30.14,3.0,NNE,20.7,27.6,N/A,,Overcast,20,2013-12-08 08:35:00
2:55 AM,44.6,44.6,100,30.16,4.0,NNE,18.4,-,N/A,,Overcast,20,2013-12-08 08:55:00
3:15 AM,44.6,42.8,93,30.15,5.0,NNE,17.3,-,N/A,,Overcast,20,2013-12-08 09:15:00
3:35 AM,44.6,42.8,93,30.14,4.0,NNE,19.6,-,N/A,,Overcast,20,2013-12-08 09:35:00
3:55 AM,44.6,44.6,100,30.16,4.0,North,16.1,24.2,N/A,,Overcast,10,2013-12-08 09:55:00
4:15 AM,44.6,44.6,100,30.15,5.0,North,18.4,-,N/A,,Overcast,10,2013-12-08 10:15:00
4:35 AM,44.6,42.8,93,30.15,4.0,NNE,18.4,-,N/A,,Overcast,20,2013-12-08 10:35:00
4:55 AM,44.6,42.8,93,30.14,4.0,NNE,20.7,-,N/A,,Overcast,20,2013-12-08 10:55:00
5:15 AM,46.4,44.6,93,30.14,3.0,NNE,17.3,24.2,N/A,,Overcast,30,2013-12-08 11:15:00
5:35 AM,46.4,44.6,93,30.14,3.0,NNE,19.6,25.3,N/A,,Overcast,30,2013-12-08 11:35:00
5:55 AM,46.4,44.6,93,30.15,3.0,NNE,17.3,24.2,N/A,,Overcast,20,2013-12-08 11:55:00
6:15 AM,46.4,44.6,93,30.17,4.0,NNE,15.0,21.9,N/A,,Overcast,20,2013-12-08 12:15:00
6:35 AM,46.4,44.6,93,30.14,4.0,NNE,21.9,-,N/A,,Overcast,20,2013-12-08 12:35:00
6:55 AM,46.4,44.6,93,30.16,4.0,North,17.3,-,N/A,,Overcast,10,2013-12-08 12:55:00
7:15 AM,46.4,44.6,93,30.15,4.0,NNE,19.6,-,N/A,,Overcast,20,2013-12-08 13:15:00
7:35 AM,46.4,44.6,93,30.15,4.0,NNE,16.1,24.2,N/A,,Overcast,20,2013-12-08 13:35:00
7:55 AM,46.4,44.6,93,30.16,4.0,NNE,13.8,-,N/A,,Overcast,20,2013-12-08 13:55:00
8:15 AM,48.2,46.4,93,30.15,5.0,NNE,16.1,-,N/A,,Overcast,20,2013-12-08 14:15:00
8:35 AM,48.2,46.4,93,30.15,5.0,NE,11.5,-,N/A,,Overcast,50,2013-12-08 14:35:00
8:55 AM,50.0,46.4,87,30.14,6.0,NE,12.7,-,N/A,,Overcast,40,2013-12-08 14:55:00
9:15 AM,50.0,46.4,87,30.15,6.0,North,15.0,-,N/A,,Overcast,10,2013-12-08 15:15:00
9:35 AM,48.2,46.4,93,30.15,-9999.0,North,16.1,-,N/A,,Overcast,10,2013-12-08 15:35:00
9:55 AM,48.2,46.4,93,30.15,6.0,North,16.1,-,N/A,,Overcast,10,2013-12-08 15:55:00
10:15 AM,48.2,46.4,93,30.15,6.0,North,16.1,-,N/A,,Overcast,360,2013-12-08 16:15:00
10:35 AM,48.2,46.4,93,30.15,6.0,North,15.0,-,N/A,,Overcast,10,2013-12-08 16:35:00
10:55 AM,48.2,44.6,87,30.14,6.0,North,15.0,-,N/A,,Overcast,10,2013-12-08 16:55:00
11:15 AM,48.2,44.6,87,30.14,6.0,North,15.0,-,N/A,,Overcast,360,2013-12-08 17:15:00
11:35 AM,48.2,44.6,87,30.13,5.0,North,15.0,-,N/A,,Overcast,360,2013-12-08 17:35:00
11:55 AM,48.2,44.6,87,30.12,7.0,North,13.8,-,N/A,,Overcast,360,2013-12-08 17:55:00
12:15 PM,48.2,44.6,87,30.11,7.0,North,12.7,-,N/A,,Overcast,10,2013-12-08 18:15:00
12:35 PM,48.2,44.6,87,30.09,7.0,NNE,16.1,-,N/A,,Overcast,20,2013-12-08 18:35:00
12:55 PM,48.2,44.6,87,30.08,7.0,NNE,16.1,-,N/A,,Overcast,20,2013-12-08 18:55:00
1:15 PM,48.2,44.6,87,30.07,7.0,NNE,16.1,-,N/A,,Overcast,20,2013-12-08 19:15:00
1:35 PM,48.2,44.6,87,30.05,7.0,NNE,16.1,-,N/A,,Mostly Cloudy,20,2013-12-08 19:35:00
1:55 PM,50.0,44.6,82,30.05,8.0,NNE,15.0,-,N/A,,Overcast,20,2013-12-08 19:55:00
2:15 PM,50.0,44.6,82,30.05,8.0,NNE,12.7,-,N/A,,Overcast,30,2013-12-08 20:15:00
2:35 PM,50.0,44.6,82,30.04,8.0,NNE,12.7,-,N/A,,Overcast,20,2013-12-08 20:35:00
2:55 PM,50.0,46.4,87,30.04,8.0,NE,10.4,-,N/A,,Overcast,40,2013-12-08 20:55:00
3:15 PM,50.0,46.4,87,30.04,8.0,NNE,11.5,-,N/A,,Overcast,30,2013-12-08 21:15:00
3:35 PM,51.8,46.4,82,30.03,8.0,NE,13.8,-,N/A,,Overcast,40,2013-12-08 21:35:00
3:55 PM,51.8,46.4,82,30.04,8.0,NNE,12.7,-,N/A,,Overcast,20,2013-12-08 21:55:00
4:15 PM,51.8,46.4,82,30.04,8.0,NNE,13.8,-,N/A,,Overcast,20,2013-12-08 22:15:00
4:35 PM,51.8,46.4,82,30.04,7.0,NNE,15.0,-,N/A,,Overcast,20,2013-12-08 22:35:00
4:55 PM,51.8,46.4,82,30.04,8.0,NNE,15.0,-,N/A,,Overcast,20,2013-12-08 22:55:00
5:15 PM,51.8,46.4,82,30.06,7.0,NNE,12.7,-,N/A,,Overcast,20,2013-12-08 23:15:00
5:35 PM,51.8,46.4,82,30.06,9.0,NNE,13.8,-,N/A,,Overcast,30,2013-12-08 23:35:00
5:55 PM,51.8,44.6,76,30.06,10.0,NE,11.5,-,N/A,,Overcast,40,2013-12-08 23:55:00
6:15 PM,51.8,46.4,82,30.06,9.0,NNE,16.1,-,N/A,,Overcast,30,2013-12-09 00:15:00
6:35 PM,51.8,46.4,82,30.08,10.0,NE,11.5,-,N/A,,Overcast,40,2013-12-09 00:35:00
6:55 PM,51.8,46.4,82,30.07,9.0,NE,11.5,18.4,N/A,,Overcast,50,2013-12-09 00:55:00
7:15 PM,51.8,46.4,82,30.08,9.0,NE,10.4,-,N/A,,Overcast,50,2013-12-09 01:15:00
7:35 PM,53.6,46.4,77,30.08,9.0,NE,13.8,-,N/A,,Overcast,40,2013-12-09 01:35:00
7:55 PM,53.6,46.4,77,30.08,8.0,NNE,15.0,20.7,N/A,,Overcast,30,2013-12-09 01:55:00
8:15 PM,53.6,48.2,82,30.09,9.0,NE,12.7,-,N/A,,Overcast,40,2013-12-09 02:15:00
8:35 PM,53.6,48.2,82,30.09,8.0,NNE,13.8,-,N/A,,Overcast,20,2013-12-09 02:35:00
8:55 PM,53.6,48.2,82,30.10,8.0,NNE,13.8,-,N/A,,Overcast,20,2013-12-09 02:55:00
9:15 PM,53.6,48.2,82,30.09,8.0,NE,11.5,19.6,N/A,,Overcast,50,2013-12-09 03:15:00
9:35 PM,53.6,48.2,82,30.09,8.0,NNE,16.1,-,N/A,,Overcast,30,2013-12-09 03:35:00
9:55 PM,53.6,48.2,82,30.09,8.0,NNE,16.1,-,N/A,,Overcast,30,2013-12-09 03:55:00
10:15 PM,53.6,50.0,88,30.10,7.0,NE,10.4,19.6,N/A,,Overcast,50,2013-12-09 04:15:00
10:35 PM,53.6,50.0,88,30.10,8.0,NE,15.0,-,N/A,,Overcast,40,2013-12-09 04:35:00
10:55 PM,53.6,50.0,88,30.09,8.0,NE,12.7,19.6,N/A,,Overcast,50,2013-12-09 04:55:00
11:15 PM,53.6,50.0,88,30.10,8.0,NE,11.5,-,N/A,,Overcast,50,2013-12-09 05:15:00
11:35 PM,53.6,50.0,88,30.09,8.0,NE,15.0,-,N/A,,Overcast,40,2013-12-09 05:35:00
11:55 PM,53.6,50.0,88,30.07,8.0,NE,15.0,23.0,N/A,,Overcast,40,2013-12-09 05:55:00